sensor_id;sensor_type;location;lat;lon;timestamp;pressure;altitude;pressure_sealevel;temperature;humidity
34073;BME280;20346;52.702;16.886;2023-04-06T00:02:49;101584.11;;;-1.28;50.58
34073;BME280;20346;52.702;16.886;2023-04-06T00:06:16;101582.88;;;-1.28;50.58
34073;BME280;20346;52.702;16.886;2023-04-06T00:09:42;101578.88;;;-1.27;50.53
34073;BME280;20346;52.702;16.886;2023-04-06T00:13:09;101581.15;;;-1.26;50.51
34073;BME280;20346;52.702;16.886;2023-04-06T00:16:35;101581.60;;;-1.30;50.60
34073;BME280;20346;52.702;16.886;2023-04-06T00:20:02;101580.95;;;-1.30;50.63
34073;BME280;20346;52.702;16.886;2023-04-06T00:23:28;101578.67;;;-1.32;50.66
34073;BME280;20346;52.702;16.886;2023-04-06T00:26:55;101578.80;;;-1.36;50.53
34073;BME280;20346;52.702;16.886;2023-04-06T00:30:21;101573.54;;;-1.40;50.71
34073;BME280;20346;52.702;16.886;2023-04-06T00:33:48;101574.79;;;-1.42;50.70
34073;BME280;20346;52.702;16.886;2023-04-06T00:37:14;101574.92;;;-1.46;50.80
34073;BME280;20346;52.702;16.886;2023-04-06T00:40:40;101575.10;;;-1.50;50.92
34073;BME280;20346;52.702;16.886;2023-04-06T00:44:07;101578.66;;;-1.57;50.90
34073;BME280;20346;52.702;16.886;2023-04-06T00:47:33;101576.88;;;-1.66;50.94
34073;BME280;20346;52.702;16.886;2023-04-06T00:51:00;101577.67;;;-1.74;51.07
34073;BME280;20346;52.702;16.886;2023-04-06T00:54:27;101574.86;;;-1.73;51.17
34073;BME280;20346;52.702;16.886;2023-04-06T00:57:53;101573.34;;;-1.70;51.13
34073;BME280;20346;52.702;16.886;2023-04-06T01:01:21;101573.17;;;-1.69;51.21
34073;BME280;20346;52.702;16.886;2023-04-06T01:04:48;101576.93;;;-1.69;51.17
34073;BME280;20346;52.702;16.886;2023-04-06T01:08:14;101571.28;;;-1.70;51.13
34073;BME280;20346;52.702;16.886;2023-04-06T01:11:41;101568.48;;;-1.72;51.27
34073;BME280;20346;52.702;16.886;2023-04-06T01:15:08;101571.54;;;-1.72;51.26
34073;BME280;20346;52.702;16.886;2023-04-06T01:18:37;101574.92;;;-1.75;51.34
34073;BME280;20346;52.702;16.886;2023-04-06T01:22:04;101572.87;;;-1.79;51.42
34073;BME280;20346;52.702;16.886;2023-04-06T01:24:42;101573.00;;;-1.80;51.47
34073;BME280;20346;52.702;16.886;2023-04-06T01:27:18;101577.06;;;-1.83;51.49
34073;BME280;20346;52.702;16.886;2023-04-06T01:29:52;101579.51;;;-1.88;51.45
34073;BME280;20346;52.702;16.886;2023-04-06T01:32:25;101580.42;;;-1.93;51.58
34073;BME280;20346;52.702;16.886;2023-04-06T01:35:00;101582.92;;;-2.01;51.70
34073;BME280;20346;52.702;16.886;2023-04-06T01:37:34;101582.27;;;-2.11;51.72
34073;BME280;20346;52.702;16.886;2023-04-06T01:40:11;101590.05;;;-2.17;51.78
34073;BME280;20346;52.702;16.886;2023-04-06T01:42:44;101586.66;;;-2.24;51.98
34073;BME280;20346;52.702;16.886;2023-04-06T01:45:22;101582.48;;;-2.23;51.81
34073;BME280;20346;52.702;16.886;2023-04-06T01:48:03;101579.48;;;-2.22;51.96
34073;BME280;20346;52.702;16.886;2023-04-06T01:50:37;101579.34;;;-2.22;51.95
34073;BME280;20346;52.702;16.886;2023-04-06T01:53:10;101578.01;;;-2.18;51.89
34073;BME280;20346;52.702;16.886;2023-04-06T01:56:37;101576.69;;;-2.14;51.86
34073;BME280;20346;52.702;16.886;2023-04-06T02:00:05;101574.88;;;-2.10;51.98
34073;BME280;20346;52.702;16.886;2023-04-06T02:03:31;101574.19;;;-2.10;52.01
34073;BME280;20346;52.702;16.886;2023-04-06T02:06:58;101572.14;;;-2.11;51.98
34073;BME280;20346;52.702;16.886;2023-04-06T02:10:24;101572.80;;;-2.11;51.94
34073;BME280;20346;52.702;16.886;2023-04-06T02:13:51;101574.60;;;-2.22;51.92
34073;BME280;20346;52.702;16.886;2023-04-06T02:17:18;101574.02;;;-2.37;52.00
34073;BME280;20346;52.702;16.886;2023-04-06T02:20:44;101567.81;;;-2.46;52.15
34073;BME280;20346;52.702;16.886;2023-04-06T02:24:12;101564.64;;;-2.42;52.16
34073;BME280;20346;52.702;16.886;2023-04-06T02:27:38;101565.11;;;-2.36;52.16
34073;BME280;20346;52.702;16.886;2023-04-06T02:30:12;101568.41;;;-2.35;52.16
34073;BME280;20346;52.702;16.886;2023-04-06T02:33:14;101565.40;;;-2.34;52.13
34073;BME280;20346;52.702;16.886;2023-04-06T02:36:41;101565.71;;;-2.37;52.18
34073;BME280;20346;52.702;16.886;2023-04-06T02:40:09;101566.02;;;-2.41;52.26
34073;BME280;20346;52.702;16.886;2023-04-06T02:43:35;101568.95;;;-2.50;52.35
34073;BME280;20346;52.702;16.886;2023-04-06T02:46:38;101571.26;;;-2.67;52.28
34073;BME280;20346;52.702;16.886;2023-04-06T02:49:12;101571.95;;;-2.77;52.51
34073;BME280;20346;52.702;16.886;2023-04-06T02:52:38;101576.50;;;-2.71;52.48
34073;BME280;20346;52.702;16.886;2023-04-06T02:56:05;101574.91;;;-2.65;52.45
34073;BME280;20346;52.702;16.886;2023-04-06T02:59:31;101578.65;;;-2.61;52.61
34073;BME280;20346;52.702;16.886;2023-04-06T03:02:57;101579.27;;;-2.56;52.57
34073;BME280;20346;52.702;16.886;2023-04-06T03:06:24;101579.80;;;-2.55;52.53
34073;BME280;20346;52.702;16.886;2023-04-06T03:09:50;101582.21;;;-2.58;52.56
34073;BME280;20346;52.702;16.886;2023-04-06T03:13:17;101582.50;;;-2.62;52.56
34073;BME280;20346;52.702;16.886;2023-04-06T03:16:43;101589.19;;;-2.63;52.65
34073;BME280;20346;52.702;16.886;2023-04-06T03:20:10;101589.69;;;-2.70;52.62
34073;BME280;20346;52.702;16.886;2023-04-06T03:23:36;101589.37;;;-2.73;52.87
34073;BME280;20346;52.702;16.886;2023-04-06T03:26:12;101593.38;;;-2.77;53.02
34073;BME280;20346;52.702;16.886;2023-04-06T03:28:46;101595.85;;;-2.81;53.04
34073;BME280;20346;52.702;16.886;2023-04-06T03:31:19;101593.20;;;-2.86;52.97
34073;BME280;20346;52.702;16.886;2023-04-06T03:34:03;101591.45;;;-2.87;52.93
34073;BME280;20346;52.702;16.886;2023-04-06T03:36:36;101594.63;;;-2.82;52.95
34073;BME280;20346;52.702;16.886;2023-04-06T03:39:21;101599.23;;;-2.81;52.94
34073;BME280;20346;52.702;16.886;2023-04-06T03:42:49;101603.55;;;-2.82;52.92
34073;BME280;20346;52.702;16.886;2023-04-06T03:46:16;101610.54;;;-2.78;53.03
34073;BME280;20346;52.702;16.886;2023-04-06T03:49:13;101611.48;;;-2.76;52.96
34073;BME280;20346;52.702;16.886;2023-04-06T03:51:47;101612.73;;;-2.77;52.97
34073;BME280;20346;52.702;16.886;2023-04-06T03:54:22;101612.30;;;-2.76;53.00
34073;BME280;20346;52.702;16.886;2023-04-06T03:56:55;101615.02;;;-2.76;52.89
34073;BME280;20346;52.702;16.886;2023-04-06T03:59:49;101621.12;;;-2.79;52.90
34073;BME280;20346;52.702;16.886;2023-04-06T04:02:23;101621.69;;;-2.81;52.95
34073;BME280;20346;52.702;16.886;2023-04-06T04:04:56;101616.44;;;-2.81;53.07
34073;BME280;20346;52.702;16.886;2023-04-06T04:07:30;101618.62;;;-2.84;53.15
34073;BME280;20346;52.702;16.886;2023-04-06T04:10:05;101619.45;;;-2.87;53.16
34073;BME280;20346;52.702;16.886;2023-04-06T04:12:59;101620.99;;;-2.87;53.36
34073;BME280;20346;52.702;16.886;2023-04-06T04:15:33;101618.94;;;-2.91;53.28
34073;BME280;20346;52.702;16.886;2023-04-06T04:18:07;101619.27;;;-2.94;53.31
34073;BME280;20346;52.702;16.886;2023-04-06T04:31:52;101621.45;;;-2.91;53.43
34073;BME280;20346;52.702;16.886;2023-04-06T04:40:23;101618.70;;;-2.89;53.69
34073;BME280;20346;52.702;16.886;2023-04-06T04:42:56;101618.42;;;-2.91;53.65
34073;BME280;20346;52.702;16.886;2023-04-06T04:45:33;101619.83;;;-2.93;53.75
34073;BME280;20346;52.702;16.886;2023-04-06T04:48:07;101623.81;;;-2.94;53.70
34073;BME280;20346;52.702;16.886;2023-04-06T04:50:43;101627.87;;;-2.97;53.78
34073;BME280;20346;52.702;16.886;2023-04-06T04:53:17;101628.07;;;-3.00;53.83
34073;BME280;20346;52.702;16.886;2023-04-06T04:55:52;101627.81;;;-3.01;54.03
34073;BME280;20346;52.702;16.886;2023-04-06T04:58:25;101626.49;;;-3.01;54.01
34073;BME280;20346;52.702;16.886;2023-04-06T05:00:59;101627.45;;;-2.92;54.17
34073;BME280;20346;52.702;16.886;2023-04-06T05:03:33;101627.99;;;-2.82;54.17
34073;BME280;20346;52.702;16.886;2023-04-06T05:06:11;101626.67;;;-2.73;54.14
34073;BME280;20346;52.702;16.886;2023-04-06T05:08:44;101626.34;;;-2.66;54.15
34073;BME280;20346;52.702;16.886;2023-04-06T05:11:20;101625.11;;;-2.54;54.33
34073;BME280;20346;52.702;16.886;2023-04-06T05:14:19;101623.40;;;-2.29;54.42
34073;BME280;20346;52.702;16.886;2023-04-06T05:17:46;101627.28;;;-2.02;54.31
34073;BME280;20346;52.702;16.886;2023-04-06T05:21:12;101629.41;;;-1.77;54.49
34073;BME280;20346;52.702;16.886;2023-04-06T05:24:17;101638.80;;;-1.58;54.41
34073;BME280;20346;52.702;16.886;2023-04-06T05:27:44;101639.63;;;-1.30;54.51
34073;BME280;20346;52.702;16.886;2023-04-06T05:30:19;101641.18;;;-1.05;54.64
34073;BME280;20346;52.702;16.886;2023-04-06T05:32:54;101641.16;;;-0.84;54.77
34073;BME280;20346;52.702;16.886;2023-04-06T05:35:38;101641.38;;;-0.49;54.90
34073;BME280;20346;52.702;16.886;2023-04-06T05:38:11;101642.09;;;-0.10;54.92
34073;BME280;20346;52.702;16.886;2023-04-06T05:40:45;101641.44;;;0.27;54.89
34073;BME280;20346;52.702;16.886;2023-04-06T05:43:28;101641.40;;;0.63;54.90
34073;BME280;20346;52.702;16.886;2023-04-06T05:46:01;101642.65;;;0.99;54.88
34073;BME280;20346;52.702;16.886;2023-04-06T05:48:38;101642.11;;;1.25;54.71
34073;BME280;20346;52.702;16.886;2023-04-06T05:51:40;101642.00;;;1.58;54.75
34073;BME280;20346;52.702;16.886;2023-04-06T05:54:13;101639.42;;;1.95;54.72
34073;BME280;20346;52.702;16.886;2023-04-06T05:56:47;101636.45;;;2.37;54.71
34073;BME280;20346;52.702;16.886;2023-04-06T05:59:20;101630.84;;;2.80;54.77
34073;BME280;20346;52.702;16.886;2023-04-06T06:01:54;101629.04;;;3.21;54.65
34073;BME280;20346;52.702;16.886;2023-04-06T06:04:27;101625.89;;;3.53;54.51
34073;BME280;20346;52.702;16.886;2023-04-06T06:07:01;101628.82;;;3.85;54.64
34073;BME280;20346;52.702;16.886;2023-04-06T06:09:34;101625.91;;;4.30;54.58
34073;BME280;20346;52.702;16.886;2023-04-06T06:12:08;101621.58;;;4.77;54.33
34073;BME280;20346;52.702;16.886;2023-04-06T06:14:42;101618.99;;;5.37;54.37
34073;BME280;20346;52.702;16.886;2023-04-06T06:17:21;101618.34;;;5.98;54.24
34073;BME280;20346;52.702;16.886;2023-04-06T06:20:20;101618.73;;;6.60;54.22
34073;BME280;20346;52.702;16.886;2023-04-06T06:23:47;101617.39;;;7.47;54.34
34073;BME280;20346;52.702;16.886;2023-04-06T06:26:44;101614.52;;;8.31;54.26
34073;BME280;20346;52.702;16.886;2023-04-06T06:29:37;101616.11;;;9.04;53.86
34073;BME280;20346;52.702;16.886;2023-04-06T06:32:11;101614.98;;;9.56;54.01
34073;BME280;20346;52.702;16.886;2023-04-06T06:34:45;101616.86;;;10.10;53.79
34073;BME280;20346;52.702;16.886;2023-04-06T06:37:18;101613.12;;;10.59;53.62
34073;BME280;20346;52.702;16.886;2023-04-06T06:39:52;101610.08;;;11.21;53.47
34073;BME280;20346;52.702;16.886;2023-04-06T06:42:25;101618.11;;;11.85;53.43
34073;BME280;20346;52.702;16.886;2023-04-06T06:45:00;101615.92;;;12.51;53.48
34073;BME280;20346;52.702;16.886;2023-04-06T06:47:36;101617.16;;;13.05;53.18
34073;BME280;20346;52.702;16.886;2023-04-06T06:50:12;101615.67;;;13.46;53.31
34073;BME280;20346;52.702;16.886;2023-04-06T06:52:46;101621.20;;;13.99;53.28
34073;BME280;20346;52.702;16.886;2023-04-06T06:55:21;101619.56;;;14.40;52.76
34073;BME280;20346;52.702;16.886;2023-04-06T06:57:57;101619.20;;;14.72;53.11
34073;BME280;20346;52.702;16.886;2023-04-06T07:00:33;101614.59;;;15.24;52.92
34073;BME280;20346;52.702;16.886;2023-04-06T07:03:07;101614.95;;;15.74;52.79
34073;BME280;20346;52.702;16.886;2023-04-06T07:05:49;101612.86;;;16.20;52.67
34073;BME280;20346;52.702;16.886;2023-04-06T07:08:23;101617.23;;;16.27;52.44
34073;BME280;20346;52.702;16.886;2023-04-06T07:10:56;101619.05;;;16.38;52.67
34073;BME280;20346;52.702;16.886;2023-04-06T07:13:30;101619.10;;;16.51;52.81
34073;BME280;20346;52.702;16.886;2023-04-06T07:16:34;101616.83;;;16.78;52.73
34073;BME280;20346;52.702;16.886;2023-04-06T07:19:07;101616.41;;;17.32;52.86
34073;BME280;20346;52.702;16.886;2023-04-06T07:21:41;101613.47;;;17.85;52.04
34073;BME280;20346;52.702;16.886;2023-04-06T07:24:15;101614.56;;;18.28;52.64
34073;BME280;20346;52.702;16.886;2023-04-06T07:26:48;101612.95;;;18.51;52.76
34073;BME280;20346;52.702;16.886;2023-04-06T07:29:22;101610.27;;;19.33;53.25
34073;BME280;20346;52.702;16.886;2023-04-06T07:31:57;101612.32;;;20.37;52.81
34073;BME280;20346;52.702;16.886;2023-04-06T07:34:32;101614.64;;;21.10;52.62
34073;BME280;20346;52.702;16.886;2023-04-06T07:37:06;101615.66;;;20.66;51.88
34073;BME280;20346;52.702;16.886;2023-04-06T07:39:39;101614.69;;;20.13;52.58
34073;BME280;20346;52.702;16.886;2023-04-06T07:42:13;101613.91;;;19.52;52.43
34073;BME280;20346;52.702;16.886;2023-04-06T07:45:17;101615.59;;;18.71;52.55
34073;BME280;20346;52.702;16.886;2023-04-06T07:47:51;101615.39;;;18.24;52.15
34073;BME280;20346;52.702;16.886;2023-04-06T07:50:26;101611.80;;;17.72;52.22
34073;BME280;20346;52.702;16.886;2023-04-06T07:52:59;101616.27;;;17.62;51.80
34073;BME280;20346;52.702;16.886;2023-04-06T07:55:35;101614.27;;;18.58;51.80
34073;BME280;20346;52.702;16.886;2023-04-06T07:58:09;101614.77;;;19.98;50.98
34073;BME280;20346;52.702;16.886;2023-04-06T08:00:44;101615.17;;;21.06;49.95
34073;BME280;20346;52.702;16.886;2023-04-06T08:03:18;101615.17;;;21.80;49.24
34073;BME280;20346;52.702;16.886;2023-04-06T08:05:52;101613.95;;;22.27;49.98
34073;BME280;20346;52.702;16.886;2023-04-06T08:08:25;101609.48;;;22.67;49.54
34073;BME280;20346;52.702;16.886;2023-04-06T08:10:59;101609.14;;;22.91;49.70
34073;BME280;20346;52.702;16.886;2023-04-06T08:13:33;101608.15;;;23.33;49.62
34073;BME280;20346;52.702;16.886;2023-04-06T08:16:06;101604.91;;;23.98;49.75
34073;BME280;20346;52.702;16.886;2023-04-06T08:18:41;101607.39;;;24.44;49.61
34073;BME280;20346;52.702;16.886;2023-04-06T08:21:25;101605.19;;;24.93;49.33
34073;BME280;20346;52.702;16.886;2023-04-06T08:23:58;101602.60;;;25.06;48.64
34073;BME280;20346;52.702;16.886;2023-04-06T08:27:32;101600.70;;;25.09;49.33
34073;BME280;20346;52.702;16.886;2023-04-06T08:30:05;101598.77;;;24.79;48.47
34073;BME280;20346;52.702;16.886;2023-04-06T08:32:39;101594.90;;;24.79;49.09
34073;BME280;20346;52.702;16.886;2023-04-06T08:36:09;101591.10;;;24.45;48.66
34073;BME280;20346;52.702;16.886;2023-04-06T08:39:35;101590.94;;;23.02;48.22
34073;BME280;20346;52.702;16.886;2023-04-06T08:42:12;101595.83;;;21.15;48.75
34073;BME280;20346;52.702;16.886;2023-04-06T08:44:43;101592.60;;;19.60;48.76
34073;BME280;20346;52.702;16.886;2023-04-06T08:47:19;101592.60;;;18.10;48.18
34073;BME280;20346;52.702;16.886;2023-04-06T08:49:53;101592.02;;;16.74;48.06
34073;BME280;20346;52.702;16.886;2023-04-06T08:52:26;101592.56;;;15.80;47.88
34073;BME280;20346;52.702;16.886;2023-04-06T08:55:00;101592.58;;;15.04;47.84
34073;BME280;20346;52.702;16.886;2023-04-06T08:57:33;101594.67;;;14.33;46.58
34073;BME280;20346;52.702;16.886;2023-04-06T09:00:10;101601.02;;;13.38;46.02
34073;BME280;20346;52.702;16.886;2023-04-06T09:02:43;101594.20;;;12.43;46.32
34073;BME280;20346;52.702;16.886;2023-04-06T09:05:16;101591.71;;;11.76;45.94
34073;BME280;20346;52.702;16.886;2023-04-06T09:08:01;101588.54;;;11.08;45.65
34073;BME280;20346;52.702;16.886;2023-04-06T09:10:35;101585.70;;;10.60;45.09
34073;BME280;20346;52.702;16.886;2023-04-06T09:13:08;101587.08;;;10.15;45.32
34073;BME280;20346;52.702;16.886;2023-04-06T09:15:41;101587.70;;;9.89;45.11
34073;BME280;20346;52.702;16.886;2023-04-06T09:18:27;101591.09;;;9.62;44.93
34073;BME280;20346;52.702;16.886;2023-04-06T09:20:56;101590.64;;;9.34;44.72
34073;BME280;20346;52.702;16.886;2023-04-06T09:23:43;101590.86;;;9.10;44.40
34073;BME280;20346;52.702;16.886;2023-04-06T09:26:16;101587.77;;;8.82;44.26
34073;BME280;20346;52.702;16.886;2023-04-06T09:28:53;101581.13;;;8.65;44.31
34073;BME280;20346;52.702;16.886;2023-04-06T09:31:30;101588.27;;;8.55;44.23
34073;BME280;20346;52.702;16.886;2023-04-06T09:34:02;101585.36;;;8.36;43.88
34073;BME280;20346;52.702;16.886;2023-04-06T09:36:47;101589.20;;;8.23;43.97
34073;BME280;20346;52.702;16.886;2023-04-06T09:39:20;101585.48;;;8.12;43.90
34073;BME280;20346;52.702;16.886;2023-04-06T09:42:00;101582.50;;;8.05;43.86
34073;BME280;20346;52.702;16.886;2023-04-06T09:44:40;101580.02;;;7.98;43.63
34073;BME280;20346;52.702;16.886;2023-04-06T09:47:20;101578.51;;;7.84;43.53
34073;BME280;20346;52.702;16.886;2023-04-06T10:01:01;101573.50;;;7.50;43.40
34073;BME280;20346;52.702;16.886;2023-04-06T10:06:20;101570.00;;;7.44;43.29
34073;BME280;20346;52.702;16.886;2023-04-06T10:17:38;101566.55;;;7.14;43.01
34073;BME280;20346;52.702;16.886;2023-04-06T10:28:36;101558.14;;;7.26;42.95
34073;BME280;20346;52.702;16.886;2023-04-06T10:31:23;101553.37;;;7.31;42.91
34073;BME280;20346;52.702;16.886;2023-04-06T10:33:59;101553.54;;;7.31;42.65
34073;BME280;20346;52.702;16.886;2023-04-06T10:36:39;101555.06;;;7.26;42.76
34073;BME280;20346;52.702;16.886;2023-04-06T10:39:24;101550.08;;;7.26;42.83
34073;BME280;20346;52.702;16.886;2023-04-06T10:42:06;101557.64;;;7.29;42.81
34073;BME280;20346;52.702;16.886;2023-04-06T10:45:30;101547.00;;;7.29;42.72
34073;BME280;20346;52.702;16.886;2023-04-06T10:48:54;101546.36;;;7.34;42.81
34073;BME280;20346;52.702;16.886;2023-04-06T10:52:20;101548.80;;;7.36;42.79
34073;BME280;20346;52.702;16.886;2023-04-06T10:55:46;101547.52;;;7.30;42.66
34073;BME280;20346;52.702;16.886;2023-04-06T10:59:12;101542.90;;;7.30;42.76
34073;BME280;20346;52.702;16.886;2023-04-06T11:02:38;101540.98;;;7.41;42.79
34073;BME280;20346;52.702;16.886;2023-04-06T11:05:51;101537.46;;;7.49;42.60
34073;BME280;20346;52.702;16.886;2023-04-06T11:09:27;101536.59;;;7.48;42.72
34073;BME280;20346;52.702;16.886;2023-04-06T11:12:54;101533.55;;;7.38;42.58
34073;BME280;20346;52.702;16.886;2023-04-06T11:16:21;101529.04;;;7.33;42.78
34073;BME280;20346;52.702;16.886;2023-04-06T11:19:46;101518.27;;;7.36;42.74
34073;BME280;20346;52.702;16.886;2023-04-06T11:23:12;101524.70;;;7.43;42.86
34073;BME280;20346;52.702;16.886;2023-04-06T11:26:39;101519.61;;;7.48;42.68
34073;BME280;20346;52.702;16.886;2023-04-06T11:30:05;101513.42;;;7.47;42.62
34073;BME280;20346;52.702;16.886;2023-04-06T11:33:37;101513.05;;;7.44;42.63
34073;BME280;20346;52.702;16.886;2023-04-06T11:37:07;101510.98;;;7.43;42.64
34073;BME280;20346;52.702;16.886;2023-04-06T11:39:46;101508.39;;;7.42;42.47
34073;BME280;20346;52.702;16.886;2023-04-06T11:42:23;101508.77;;;7.45;42.63
34073;BME280;20346;52.702;16.886;2023-04-06T11:44:59;101504.77;;;7.41;42.67
34073;BME280;20346;52.702;16.886;2023-04-06T11:47:35;101499.77;;;7.38;42.63
34073;BME280;20346;52.702;16.886;2023-04-06T11:53:01;101493.93;;;7.38;42.73
34073;BME280;20346;52.702;16.886;2023-04-06T11:55:38;101492.79;;;7.42;42.85
34073;BME280;20346;52.702;16.886;2023-04-06T11:58:11;101486.98;;;7.45;42.76
34073;BME280;20346;52.702;16.886;2023-04-06T12:03:36;101485.58;;;7.43;42.57
34073;BME280;20346;52.702;16.886;2023-04-06T12:06:06;101482.79;;;7.38;42.72
34073;BME280;20346;52.702;16.886;2023-04-06T12:08:40;101486.23;;;7.39;42.68
34073;BME280;20346;52.702;16.886;2023-04-06T12:11:15;101482.27;;;7.39;42.68
34073;BME280;20346;52.702;16.886;2023-04-06T12:13:48;101472.45;;;7.34;42.62
34073;BME280;20346;52.702;16.886;2023-04-06T12:16:22;101476.05;;;7.33;42.81
34073;BME280;20346;52.702;16.886;2023-04-06T12:18:55;101471.64;;;7.38;42.76
34073;BME280;20346;52.702;16.886;2023-04-06T12:21:29;101468.45;;;7.44;42.97
34073;BME280;20346;52.702;16.886;2023-04-06T12:24:03;101476.44;;;7.54;42.92
34073;BME280;20346;52.702;16.886;2023-04-06T12:26:36;101474.29;;;7.61;42.70
34073;BME280;20346;52.702;16.886;2023-04-06T12:29:09;101471.04;;;7.62;42.78
34073;BME280;20346;52.702;16.886;2023-04-06T12:31:42;101466.92;;;7.62;42.70
34073;BME280;20346;52.702;16.886;2023-04-06T12:34:17;101464.83;;;7.59;42.68
34073;BME280;20346;52.702;16.886;2023-04-06T12:36:51;101459.83;;;7.56;42.83
34073;BME280;20346;52.702;16.886;2023-04-06T12:39:25;101456.61;;;7.60;42.92
34073;BME280;20346;52.702;16.886;2023-04-06T12:41:58;101459.23;;;7.67;42.92
34073;BME280;20346;52.702;16.886;2023-04-06T12:44:32;101456.55;;;7.72;42.92
34073;BME280;20346;52.702;16.886;2023-04-06T12:47:08;101448.83;;;7.73;42.79
34073;BME280;20346;52.702;16.886;2023-04-06T12:49:42;101437.66;;;7.72;42.86
34073;BME280;20346;52.702;16.886;2023-04-06T12:52:15;101436.67;;;7.76;42.98
34073;BME280;20346;52.702;16.886;2023-04-06T12:54:49;101442.02;;;7.82;42.97
34073;BME280;20346;52.702;16.886;2023-04-06T12:57:22;101438.27;;;7.87;42.87
34073;BME280;20346;52.702;16.886;2023-04-06T12:59:56;101439.10;;;7.81;42.77
34073;BME280;20346;52.702;16.886;2023-04-06T13:02:30;101429.63;;;7.76;42.84
34073;BME280;20346;52.702;16.886;2023-04-06T13:05:03;101427.75;;;7.76;42.89
34073;BME280;20346;52.702;16.886;2023-04-06T13:07:37;101421.90;;;7.75;42.92
34073;BME280;20346;52.702;16.886;2023-04-06T13:10:10;101421.58;;;7.78;42.89
34073;BME280;20346;52.702;16.886;2023-04-06T13:13:37;101415.61;;;7.85;42.96
34073;BME280;20346;52.702;16.886;2023-04-06T13:24:32;101411.36;;;7.90;42.67
34073;BME280;20346;52.702;16.886;2023-04-06T13:27:05;101407.39;;;7.89;42.68
34073;BME280;20346;52.702;16.886;2023-04-06T13:29:40;101405.17;;;7.90;42.74
34073;BME280;20346;52.702;16.886;2023-04-06T13:32:14;101400.54;;;7.89;42.80
34073;BME280;20346;52.702;16.886;2023-04-06T13:34:47;101398.66;;;7.90;42.85
34073;BME280;20346;52.702;16.886;2023-04-06T13:40:08;101399.38;;;7.94;42.63
34073;BME280;20346;52.702;16.886;2023-04-06T13:42:42;101398.36;;;7.97;42.84
34073;BME280;20346;52.702;16.886;2023-04-06T13:45:15;101396.30;;;7.96;42.68
34073;BME280;20346;52.702;16.886;2023-04-06T13:47:49;101394.06;;;7.96;42.62
34073;BME280;20346;52.702;16.886;2023-04-06T13:50:27;101391.68;;;7.99;42.74
34073;BME280;20346;52.702;16.886;2023-04-06T13:52:58;101389.95;;;7.97;42.61
34073;BME280;20346;52.702;16.886;2023-04-06T13:58:19;101387.17;;;7.93;42.64
34073;BME280;20346;52.702;16.886;2023-04-06T14:00:53;101381.50;;;7.92;42.44
34073;BME280;20346;52.702;16.886;2023-04-06T14:03:26;101381.66;;;7.91;42.43
34073;BME280;20346;52.702;16.886;2023-04-06T14:06:00;101381.52;;;7.93;42.51
34073;BME280;20346;52.702;16.886;2023-04-06T14:08:33;101380.83;;;7.93;42.63
34073;BME280;20346;52.702;16.886;2023-04-06T14:11:10;101385.65;;;7.95;42.67
34073;BME280;20346;52.702;16.886;2023-04-06T14:13:40;101384.27;;;7.96;42.60
34073;BME280;20346;52.702;16.886;2023-04-06T14:16:14;101378.08;;;7.94;42.44
34073;BME280;20346;52.702;16.886;2023-04-06T14:18:47;101376.18;;;7.93;42.65
34073;BME280;20346;52.702;16.886;2023-04-06T14:21:21;101372.58;;;7.92;42.61
34073;BME280;20346;52.702;16.886;2023-04-06T14:23:54;101369.83;;;7.92;42.68
34073;BME280;20346;52.702;16.886;2023-04-06T14:26:28;101365.39;;;7.95;42.56
34073;BME280;20346;52.702;16.886;2023-04-06T14:29:03;101366.95;;;7.97;42.53
34073;BME280;20346;52.702;16.886;2023-04-06T14:31:36;101363.86;;;7.98;42.61
34073;BME280;20346;52.702;16.886;2023-04-06T14:34:09;101360.09;;;7.99;42.74
34073;BME280;20346;52.702;16.886;2023-04-06T14:36:43;101358.54;;;7.97;42.63
34073;BME280;20346;52.702;16.886;2023-04-06T14:39:17;101359.38;;;7.95;42.64
34073;BME280;20346;52.702;16.886;2023-04-06T14:41:50;101360.42;;;7.96;42.76
34073;BME280;20346;52.702;16.886;2023-04-06T14:44:24;101360.27;;;7.99;42.70
34073;BME280;20346;52.702;16.886;2023-04-06T14:47:01;101354.27;;;8.01;42.68
34073;BME280;20346;52.702;16.886;2023-04-06T14:52:24;101350.14;;;8.00;42.66
34073;BME280;20346;52.702;16.886;2023-04-06T14:57:45;101351.34;;;8.01;42.77
34073;BME280;20346;52.702;16.886;2023-04-06T15:03:09;101352.19;;;7.97;42.48
34073;BME280;20346;52.702;16.886;2023-04-06T15:05:41;101354.41;;;7.97;42.72
34073;BME280;20346;52.702;16.886;2023-04-06T15:13:49;101352.11;;;7.86;42.70
34073;BME280;20346;52.702;16.886;2023-04-06T15:21:56;101347.27;;;7.83;42.66
34073;BME280;20346;52.702;16.886;2023-04-06T15:24:30;101346.43;;;7.85;42.67
34073;BME280;20346;52.702;16.886;2023-04-06T15:27:03;101344.02;;;7.83;42.52
34073;BME280;20346;52.702;16.886;2023-04-06T15:29:38;101339.54;;;7.81;42.69
34073;BME280;20346;52.702;16.886;2023-04-06T15:35:08;101337.31;;;7.83;42.77
34073;BME280;20346;52.702;16.886;2023-04-06T15:37:35;101340.24;;;7.83;42.71
34073;BME280;20346;52.702;16.886;2023-04-06T15:42:56;101338.19;;;7.84;42.77
34073;BME280;20346;52.702;16.886;2023-04-06T15:45:31;101334.77;;;7.85;42.72
34073;BME280;20346;52.702;16.886;2023-04-06T15:48:04;101338.89;;;7.86;42.66
34073;BME280;20346;52.702;16.886;2023-04-06T15:50:42;101337.68;;;7.86;42.71
34073;BME280;20346;52.702;16.886;2023-04-06T16:01:41;101335.95;;;7.84;42.78
34073;BME280;20346;52.702;16.886;2023-04-06T16:12:35;101339.53;;;7.76;42.79
34073;BME280;20346;52.702;16.886;2023-04-06T16:15:09;101340.21;;;7.74;42.70
34073;BME280;20346;52.702;16.886;2023-04-06T16:17:43;101336.92;;;7.72;42.76
34073;BME280;20346;52.702;16.886;2023-04-06T16:20:17;101337.60;;;7.70;42.76
34073;BME280;20346;52.702;16.886;2023-04-06T16:25:41;101333.43;;;7.63;42.78